Time;durP1;ratioP1;P1;durP2;ratioP2;P2;SDS_P1;SDS_P2;PMS_P1;PMS_P2;Temp;Humidity;BMP_temperature;BMP_pressure;BME280_temperature;BME280_humidity;BME280_pressure;Samples;Min_cycle;Max_cycle;Signal;HPM_P1;HPM_P2
2023/01/14 00:01:32;;;;;;;5.93;2.85;;;;;;;8.02;99.36;99103.53;5018945;28;20052;-44
2023/01/14 00:03:59;;;;;;;11.75;5.75;;;;;;;8.02;99.44;99098.03;5027441;28;20458;-43
2023/01/14 00:06:28;;;;;;;10.93;6.13;;;;;;;8.00;99.88;99076.31;5027602;28;20432;-42
2023/01/14 00:08:58;;;;;;;14.32;6.07;;;;;;;8.03;99.92;99094.09;5027175;28;20092;-43
2023/01/14 00:14:12;;;;;;;11.82;6.70;;;;;;;8.02;100.00;99059.44;5023180;28;20250;-44
2023/01/14 00:16:39;;;;;;;8.00;5.47;;;;;;;7.99;100.00;99061.75;5028958;28;20045;-43
2023/01/14 00:19:07;;;;;;;16.33;6.03;;;;;;;8.00;100.00;99043.25;5027384;28;20053;-44
2023/01/14 00:21:34;;;;;;;10.52;5.45;;;;;;;8.01;100.00;99031.06;5027558;28;20041;-46
2023/01/14 00:24:00;;;;;;;10.75;5.30;;;;;;;8.01;100.00;99030.28;5026998;28;20046;-43
2023/01/14 00:26:27;;;;;;;7.40;3.70;;;;;;;7.99;100.00;99017.66;5027222;28;20055;-43
2023/01/14 00:28:54;;;;;;;12.45;4.10;;;;;;;7.99;100.00;98994.84;5025981;28;20042;-44
2023/01/14 00:31:24;;;;;;;5.70;3.97;;;;;;;7.99;100.00;99003.09;5031164;28;20045;-44
2023/01/14 00:33:50;;;;;;;7.35;3.80;;;;;;;7.98;100.00;98998.75;5034476;28;20140;-44
2023/01/14 00:36:19;;;;;;;9.57;4.82;;;;;;;7.98;100.00;98971.19;5026661;28;20049;-42
2023/01/14 00:38:46;;;;;;;6.22;4.10;;;;;;;7.98;100.00;98976.69;5026890;28;20041;-43
2023/01/14 00:41:14;;;;;;;6.78;3.95;;;;;;;7.99;100.00;98954.28;5026898;28;20068;-43
2023/01/14 00:43:48;;;;;;;6.85;4.50;;;;;;;7.99;100.00;98962.53;5026846;28;20145;-43
2023/01/14 00:46:24;;;;;;;8.95;4.38;;;;;;;7.99;100.00;98948.75;5022741;28;20057;-42
2023/01/14 00:48:51;;;;;;;8.05;3.85;;;;;;;7.98;100.00;98944.44;5032055;28;20045;-43
2023/01/14 00:51:18;;;;;;;10.18;5.30;;;;;;;7.99;100.00;98929.47;5026878;28;20414;-43
2023/01/14 00:53:46;;;;;;;6.63;4.18;;;;;;;7.99;100.00;98929.47;5026473;28;20287;-47
2023/01/14 00:56:15;;;;;;;7.18;5.15;;;;;;;8.01;100.00;98920.03;5026798;28;20112;-45
2023/01/14 00:58:42;;;;;;;7.35;4.80;;;;;;;8.02;100.00;98935.44;5026916;28;20103;-42
2023/01/14 01:01:09;;;;;;;9.85;6.55;;;;;;;8.02;100.00;98930.72;5026558;28;20049;-42
2023/01/14 01:03:45;;;;;;;13.77;7.20;;;;;;;8.02;100.00;98918.91;5026387;28;20364;-42
2023/01/14 01:06:14;;;;;;;12.38;7.68;;;;;;;8.03;100.00;98920.47;5037372;28;20525;-43
2023/01/14 01:08:40;;;;;;;12.15;8.02;;;;;;;8.02;100.00;98916.13;5027152;28;20041;-43
2023/01/14 01:11:08;;;;;;;12.43;6.90;;;;;;;8.02;100.00;98911.44;5026629;28;20152;-43
2023/01/14 01:13:36;;;;;;;11.55;7.15;;;;;;;8.02;100.00;98894.91;5026124;28;20053;-46
2023/01/14 01:16:06;;;;;;;13.25;8.18;;;;;;;8.04;100.00;98886.25;5026458;28;20049;-42
2023/01/14 01:18:33;;;;;;;9.27;6.40;;;;;;;8.04;100.00;98875.22;4990755;28;20041;-43
2023/01/14 01:21:19;;;;;;;9.02;6.30;;;;;;;8.04;100.00;98864.19;5009233;28;20136;-43
2023/01/14 01:23:47;;;;;;;5.30;3.20;;;;;;;8.04;100.00;98850.41;5029145;28;20086;-44
2023/01/14 01:26:19;;;;;;;5.20;3.33;;;;;;;8.04;100.00;98842.16;5026079;28;20111;-44
2023/01/14 01:28:50;;;;;;;;;;;;;;;8.06;100.00;98839.81;5028423;28;20100;-43
2023/01/14 01:31:17;;;;;;;4.10;2.85;;;;;;;8.05;100.00;98827.97;5030451;28;19925;-43
2023/01/14 01:33:44;;;;;;;5.10;2.60;;;;;;;8.06;100.00;98826.81;5030680;28;20215;-43
2023/01/14 01:36:15;;;;;;;1.85;1.70;;;;;;;8.07;100.00;98819.34;5030160;28;20049;-42
2023/01/14 01:38:43;;;;;;;2.88;1.30;;;;;;;8.06;100.00;98810.28;5030379;28;20068;-44
2023/01/14 01:41:30;;;;;;;0.88;0.80;;;;;;;8.07;100.00;98803.63;5024990;28;20057;-43
2023/01/14 01:44:02;;;;;;;1.40;0.90;;;;;;;8.09;100.00;98805.97;5029983;28;20459;-44
2023/01/14 01:46:30;;;;;;;1.42;0.93;;;;;;;8.09;100.00;98789.44;5030231;28;20365;-51
2023/01/14 01:49:03;;;;;;;0.63;0.60;;;;;;;8.09;100.00;98783.94;5030031;28;20049;-44
2023/01/14 01:51:35;;;;;;;0.82;0.70;;;;;;;8.08;100.00;98771.31;5010811;28;20049;-48
2023/01/14 01:54:03;;;;;;;0.82;0.65;;;;;;;8.07;100.00;98759.53;5012139;28;20063;-43
2023/01/14 01:56:34;;;;;;;1.65;0.40;;;;;;;8.07;100.00;98753.22;5018277;28;20122;-43
2023/01/14 01:59:05;;;;;;;0.80;0.40;;;;;;;8.07;100.00;98753.22;5006092;28;20042;-43
2023/01/14 02:01:33;;;;;;;0.47;0.45;;;;;;;8.06;100.00;98746.91;5022176;28;20050;-44
2023/01/14 02:04:01;;;;;;;0.60;0.50;;;;;;;8.06;100.00;98740.59;5028484;28;20445;-44
2023/01/14 02:06:27;;;;;;;2.05;1.48;;;;;;;8.03;100.00;98731.13;5028637;28;20049;-43
2023/01/14 02:08:56;;;;;;;0.55;0.40;;;;;;;8.04;100.00;98729.16;5027047;28;20049;-44
2023/01/14 02:12:00;;;;;;;0.45;0.40;;;;;;;8.03;100.00;98724.81;5028435;28;20224;-43
2023/01/14 02:14:38;;;;;;;0.77;0.40;;;;;;;7.99;100.00;98717.28;5032726;28;20612;-42
2023/01/14 02:17:04;;;;;;;0.60;0.40;;;;;;;7.98;100.00;98724.00;5006789;28;20095;-46
2023/01/14 02:19:48;;;;;;;0.75;0.52;;;;;;;7.98;100.00;98718.47;5028141;28;20049;-54
2023/01/14 02:22:33;;;;;;;1.10;0.50;;;;;;;7.98;100.00;98703.91;5028667;28;20115;-43
2023/01/14 02:25:15;;;;;;;1.02;0.60;;;;;;;7.97;100.00;98688.53;5010249;28;20042;-44
2023/01/14 02:27:52;;;;;;;0.50;0.25;;;;;;;7.96;100.00;98682.25;5027855;28;20055;-43
2023/01/14 02:30:27;;;;;;;0.40;0.40;;;;;;;7.95;100.00;98675.16;5029156;28;20083;-44
2023/01/14 02:33:08;;;;;;;1.63;1.20;;;;;;;7.96;100.00;98686.97;5023447;28;20049;-43
2023/01/14 02:35:43;;;;;;;0.70;0.52;;;;;;;7.95;100.00;98669.63;5027825;28;20045;-46
2023/01/14 02:38:28;;;;;;;2.03;0.93;;;;;;;7.94;100.00;98670.78;5029095;28;20053;-45
2023/01/14 02:40:58;;;;;;;0.75;0.60;;;;;;;7.94;100.00;98668.03;5028457;28;20041;-48
2023/01/14 02:46:40;;;;;;;0.80;0.40;;;;;;;7.94;100.00;98659.78;5024114;28;20049;-44
2023/01/14 02:49:11;;;;;;;0.45;0.35;;;;;;;7.92;100.00;98653.06;5035675;28;20255;-43
2023/01/14 02:51:39;;;;;;;0.50;0.50;;;;;;;7.91;100.00;98657.81;5027005;28;20049;-43
2023/01/14 02:54:05;;;;;;;1.25;0.40;;;;;;;7.91;100.00;98657.81;5028642;28;20500;-49
2023/01/14 02:56:33;;;;;;;0.57;0.40;;;;;;;7.92;100.00;98651.09;5028815;28;20050;-43
2023/01/14 02:59:22;;;;;;;0.52;0.35;;;;;;;7.91;100.00;98652.28;5028340;28;20076;-46
2023/01/14 03:01:51;;;;;;;1.75;0.47;;;;;;;7.89;100.00;98646.34;5105352;22;20068;-46
2023/01/14 03:04:51;;;;;;;0.98;0.32;;;;;;;7.91;100.00;98641.25;5033019;28;20049;-43
2023/01/14 03:07:38;;;;;;;1.38;0.40;;;;;;;7.90;100.00;98636.91;5016890;28;20045;-43
2023/01/14 03:10:24;;;;;;;0.30;0.30;;;;;;;7.89;100.00;98621.53;5028798;28;20049;-47
2023/01/14 03:13:15;;;;;;;0.43;0.22;;;;;;;7.88;100.00;98625.50;5028969;28;20045;-44
2023/01/14 03:15:54;;;;;;;0.80;0.47;;;;;;;7.88;100.00;98619.19;5019899;28;20056;-42
2023/01/14 03:18:41;;;;;;;0.85;0.22;;;;;;;7.87;100.00;98612.88;5029085;28;20121;-42
2023/01/14 03:21:13;;;;;;;0.22;0.20;;;;;;;7.86;100.00;98611.28;5028384;28;20041;-42
2023/01/14 03:23:51;;;;;;;0.40;0.35;;;;;;;7.86;100.00;98605.78;5024927;28;20041;-42
2023/01/14 03:26:20;;;;;;;0.63;0.25;;;;;;;7.86;100.00;98600.25;5026618;28;20401;-42
2023/01/14 03:28:47;;;;;;;0.47;0.05;;;;;;;7.86;100.00;98594.75;5027780;28;20049;-43
2023/01/14 03:31:20;;;;;;;0.68;0.10;;;;;;;7.85;100.00;98584.91;5026849;28;20073;-43
2023/01/14 03:33:52;;;;;;;0.20;0.20;;;;;;;7.84;100.00;98586.09;5026621;28;20490;-48
2023/01/14 03:36:20;;;;;;;1.00;0.20;;;;;;;7.86;100.00;98582.97;5026863;28;20072;-42
2023/01/14 03:38:52;;;;;;;0.63;0.30;;;;;;;7.86;100.00;98566.44;5028519;28;20045;-49
2023/01/14 03:44:15;;;;;;;0.30;0.25;;;;;;;7.84;100.00;98533.75;5023189;28;20562;-42
2023/01/14 03:46:42;;;;;;;1.45;0.10;;;;;;;7.84;100.00;98530.97;5026009;28;20045;-43
2023/01/14 03:49:09;;;;;;;0.17;0.17;;;;;;;7.84;100.00;98519.97;5024488;28;20498;-43
2023/01/14 03:51:51;;;;;;;0.08;0.08;;;;;;;7.83;100.00;98512.91;5017567;28;20240;-43
2023/01/14 03:54:27;;;;;;;0.30;0.30;;;;;;;7.81;100.00;98498.69;5021965;28;20387;-43
2023/01/14 03:57:13;;;;;;;0.10;0.10;;;;;;;7.82;100.00;98505.00;5026772;28;20422;-42
2023/01/14 03:59:53;;;;;;;0.30;0.20;;;;;;;7.81;100.00;98487.66;5007179;28;20041;-47
2023/01/14 04:02:22;;;;;;;1.02;0.10;;;;;;;7.82;100.00;98482.97;5024702;28;20618;-43
2023/01/14 04:04:51;;;;;;;0.20;0.13;;;;;;;7.82;100.00;98482.97;5024928;28;20461;-42
2023/01/14 04:07:17;;;;;;;0.32;0.15;;;;;;;7.80;100.00;98491.63;5026631;28;20522;-49
2023/01/14 04:09:44;;;;;;;0.20;0.10;;;;;;;7.80;100.00;98486.09;5025331;28;20049;-43
2023/01/14 04:12:11;;;;;;;0.10;0.10;;;;;;;7.80;100.00;98491.63;5026682;28;20515;-43
2023/01/14 04:17:23;;;;;;;0.25;0.10;;;;;;;7.79;100.00;98494.72;5024951;28;20053;-42
2023/01/14 04:19:49;;;;;;;0.25;0.15;;;;;;;7.76;100.00;98490.78;5025849;28;20060;-50
2023/01/14 04:22:17;;;;;;;0.38;0.20;;;;;;;7.73;100.00;98477.75;5017993;28;20053;-44
2023/01/14 04:24:43;;;;;;;2.22;0.20;;;;;;;7.70;100.00;98475.81;5023029;28;20140;-43
2023/01/14 04:27:10;;;;;;;0.22;0.20;;;;;;;7.69;100.00;98485.22;5025762;28;20053;-42
2023/01/14 04:29:37;;;;;;;0.30;0.17;;;;;;;7.72;100.00;98487.22;5027621;28;20053;-42
2023/01/14 04:32:03;;;;;;;0.40;0.10;;;;;;;7.74;100.00;98482.13;5024883;28;20052;-42
2023/01/14 04:34:30;;;;;;;1.05;0.30;;;;;;;7.77;100.00;98478.59;5023729;28;20862;-42
2023/01/14 04:36:57;;;;;;;0.38;0.15;;;;;;;7.80;100.00;98488.06;5024704;28;20126;-43
2023/01/14 04:39:24;;;;;;;1.70;0.20;;;;;;;7.81;100.00;98478.63;5022812;28;20065;-42
2023/01/14 04:44:36;;;;;;;0.73;0.68;;;;;;;7.84;100.00;98505.41;5021345;28;20053;-43
2023/01/14 04:47:03;;;;;;;1.50;1.05;;;;;;;7.83;100.00;98507.38;5026296;28;20061;-43
2023/01/14 04:49:29;;;;;;;1.83;0.65;;;;;;;7.81;100.00;98515.22;5024161;28;20049;-43
2023/01/14 04:51:56;;;;;;;2.08;1.45;;;;;;;7.76;100.00;98504.56;5025769;28;20430;-43
2023/01/14 04:54:23;;;;;;;1.13;0.40;;;;;;;7.72;100.00;98500.19;5025768;28;20045;-43
2023/01/14 04:56:49;;;;;;;3.65;0.45;;;;;;;7.67;100.00;98490.31;5026842;28;20049;-43
2023/01/14 04:59:16;;;;;;;1.52;0.52;;;;;;;7.62;100.00;98474.16;5026828;28;20046;-48
2023/01/14 05:01:43;;;;;;;7.25;2.55;;;;;;;7.59;100.00;98491.44;5025869;28;20123;-43
2023/01/14 05:04:10;;;;;;;3.45;0.47;;;;;;;7.54;100.00;98489.03;5028523;28;20049;-44
2023/01/14 05:06:37;;;;;;;1.77;0.43;;;;;;;7.50;100.00;98492.91;5009263;28;20060;-42
2023/01/14 05:09:04;;;;;;;4.88;0.70;;;;;;;7.48;100.00;98501.56;5026600;28;20406;-42
2023/01/14 05:11:30;;;;;;;4.55;0.68;;;;;;;7.44;100.00;98499.94;5026521;28;20061;-42
2023/01/14 05:13:57;;;;;;;1.25;0.68;;;;;;;7.41;100.00;98495.19;5018887;28;20043;-43
2023/01/14 05:16:26;;;;;;;4.00;0.60;;;;;;;7.39;100.00;98503.03;5026510;28;20072;-43
2023/01/14 05:18:53;;;;;;;8.05;2.47;;;;;;;7.37;100.00;98489.66;5026349;28;20034;-49
2023/01/14 05:21:21;;;;;;;10.55;2.30;;;;;;;7.34;100.00;98484.88;5035658;28;20041;-47
2023/01/14 05:23:48;;;;;;;4.30;1.60;;;;;;;7.30;100.00;98481.31;5025610;28;20467;-42
2023/01/14 05:26:15;;;;;;;2.05;0.70;;;;;;;7.29;100.00;98494.28;5024805;28;20525;-43
2023/01/14 05:28:42;;;;;;;7.07;0.73;;;;;;;7.28;100.00;98492.69;5022323;28;20057;-42
2023/01/14 05:31:09;;;;;;;7.30;1.35;;;;;;;7.29;100.00;98490.75;5025336;28;20049;-45
2023/01/14 05:33:36;;;;;;;9.07;0.85;;;;;;;7.26;100.00;98488.75;5024170;28;20451;-42
2023/01/14 05:36:03;;;;;;;2.50;0.80;;;;;;;7.25;100.00;98487.19;5005399;28;20049;-41
2023/01/14 05:38:30;;;;;;;5.50;0.93;;;;;;;7.24;100.00;98474.56;5025646;28;20188;-42
2023/01/14 05:40:57;;;;;;;6.47;0.82;;;;;;;7.23;100.00;98484.00;5025173;28;20395;-42
2023/01/14 05:46:13;;;;;;;10.40;1.25;;;;;;;7.20;100.00;98491.03;5015048;28;20064;-42
2023/01/14 05:48:40;;;;;;;5.13;0.93;;;;;;;7.18;100.00;98481.59;5023610;28;20149;-42
2023/01/14 05:51:12;;;;;;;9.30;2.03;;;;;;;7.13;100.00;98501.19;5016892;28;20053;-42
2023/01/14 05:53:39;;;;;;;5.22;0.80;;;;;;;7.06;100.00;98506.63;5018115;28;20041;-42
2023/01/14 05:56:06;;;;;;;5.82;1.30;;;;;;;6.98;100.00;98488.44;5021313;28;20418;-44
2023/01/14 05:58:33;;;;;;;4.30;0.52;;;;;;;6.94;100.00;98473.84;5023512;28;20054;-42
2023/01/14 06:06:40;;;;;;;6.63;1.13;;;;;;;6.77;100.00;98477.19;5023910;28;20041;-44
2023/01/14 06:09:09;;;;;;;5.55;1.08;;;;;;;6.72;100.00;98481.84;5023000;28;20118;-41
2023/01/14 06:11:39;;;;;;;4.35;0.82;;;;;;;6.67;100.00;98487.69;5025065;28;20048;-45
2023/01/14 06:14:06;;;;;;;6.95;1.27;;;;;;;6.62;100.00;98474.28;5025106;28;20037;-41
2023/01/14 06:16:40;;;;;;;7.40;1.33;;;;;;;6.59;100.00;98477.00;5025658;28;20160;-42
2023/01/14 06:19:08;;;;;;;7.13;1.25;;;;;;;6.55;100.00;98476.94;5027834;28;20406;-42
2023/01/14 06:21:36;;;;;;;10.60;1.27;;;;;;;6.54;100.00;98491.84;5018274;28;20045;-42
2023/01/14 06:24:03;;;;;;;7.85;1.00;;;;;;;6.50;100.00;98480.03;5029180;28;20069;-48
2023/01/14 06:26:32;;;;;;;12.02;2.40;;;;;;;6.50;100.00;98484.72;5026583;28;20057;-47
2023/01/14 06:29:10;;;;;;;5.10;1.15;;;;;;;6.46;100.00;98486.66;5029849;28;20395;-49
2023/01/14 06:31:38;;;;;;;12.85;1.60;;;;;;;6.44;100.00;98481.50;5004611;28;20402;-41
2023/01/14 06:34:06;;;;;;;8.18;1.55;;;;;;;6.41;100.00;98470.44;5029575;28;20091;-42
2023/01/14 06:36:34;;;;;;;9.68;1.48;;;;;;;6.38;100.00;98474.75;5027489;28;20045;-42
2023/01/14 06:39:02;;;;;;;8.18;1.73;;;;;;;6.37;100.00;98470.44;5025228;28;20054;-42
2023/01/14 06:41:29;;;;;;;15.32;1.73;;;;;;;6.35;100.00;98467.25;5027507;28;20688;-42
2023/01/14 06:43:56;;;;;;;5.20;1.20;;;;;;;6.31;100.00;98482.91;5009414;28;20067;-45
2023/01/14 06:46:22;;;;;;;8.48;1.52;;;;;;;6.29;100.00;98479.72;5028076;28;20088;-41
2023/01/14 06:48:49;;;;;;;9.50;1.58;;;;;;;6.26;100.00;98468.69;5022956;28;20072;-42
2023/01/14 06:51:18;;;;;;;6.47;1.90;;;;;;;6.24;100.00;98471.81;5029057;28;20060;-41
2023/01/14 06:53:45;;;;;;;10.10;1.73;;;;;;;6.21;100.00;98478.06;5028905;28;20052;-41
2023/01/14 06:56:15;;;;;;;9.52;2.35;;;;;;;6.21;100.00;98489.03;5028947;28;20053;-45
2023/01/14 06:58:42;;;;;;;5.32;1.25;;;;;;;6.18;100.00;98480.75;5028618;28;20056;-42
2023/01/14 07:01:09;;;;;;;8.48;1.60;;;;;;;6.15;100.00;98485.03;5029121;28;20053;-42
2023/01/14 07:03:38;;;;;;;7.18;1.38;;;;;;;6.10;100.00;98482.59;5040005;28;20041;-43
2023/01/14 07:06:05;;;;;;;9.30;1.38;;;;;;;6.10;100.00;98501.81;5029212;28;20164;-44
2023/01/14 07:08:33;;;;;;;10.80;1.50;;;;;;;6.08;100.00;98498.66;5010517;28;20414;-41
2023/01/14 07:11:00;;;;;;;17.00;4.05;;;;;;;6.05;100.00;98491.16;5028238;28;20487;-41
2023/01/14 07:13:26;;;;;;;11.95;1.55;;;;;;;6.02;100.00;98506.44;5028417;28;20042;-41
2023/01/14 07:15:53;;;;;;;14.43;1.45;;;;;;;6.02;100.00;98497.38;5028680;28;20052;-41
2023/01/14 07:18:20;;;;;;;8.90;1.02;;;;;;;5.99;100.00;98509.09;5028704;28;20045;-41
2023/01/14 07:20:47;;;;;;;14.50;1.85;;;;;;;5.96;100.00;98501.59;5029017;28;20046;-41
2023/01/14 07:23:13;;;;;;;8.20;0.90;;;;;;;5.96;100.00;98504.34;5026961;28;20125;-41
2023/01/14 07:25:40;;;;;;;10.95;1.98;;;;;;;5.93;100.00;98502.38;5027656;28;20762;-44
2023/01/14 07:28:07;;;;;;;6.03;1.20;;;;;;;5.91;100.00;98504.66;5025943;28;20543;-42
2023/01/14 07:30:34;;;;;;;4.78;1.10;;;;;;;5.89;100.00;98509.75;5027382;28;20041;-41
2023/01/14 07:33:01;;;;;;;6.88;2.03;;;;;;;5.86;100.00;98511.28;5019626;28;20045;-45
2023/01/14 07:35:29;;;;;;;10.50;1.50;;;;;;;5.86;100.00;98496.75;5027747;28;20042;-42
2023/01/14 07:37:57;;;;;;;7.82;1.67;;;;;;;5.83;100.00;98495.50;5035409;28;20057;-42
2023/01/14 07:40:25;;;;;;;7.55;1.90;;;;;;;5.82;100.00;98506.84;5026673;28;20514;-41
2023/01/14 07:42:59;;;;;;;8.77;2.35;;;;;;;5.81;100.00;98497.03;5023756;28;20045;-41
2023/01/14 07:45:29;;;;;;;12.75;2.05;;;;;;;5.79;100.00;98494.66;5025162;28;20049;-42
2023/01/14 07:47:59;;;;;;;11.85;1.65;;;;;;;5.76;100.00;98489.91;5015303;28;20132;-44
2023/01/14 07:50:25;;;;;;;8.88;3.40;;;;;;;5.74;100.00;98488.69;5005519;28;20790;-41
2023/01/14 07:52:54;;;;;;;7.82;1.30;;;;;;;5.70;100.00;98498.81;5027445;28;20041;-42
2023/01/14 07:55:21;;;;;;;8.20;1.88;;;;;;;5.67;100.00;98505.03;5020202;28;20049;-42
2023/01/14 07:57:48;;;;;;;7.05;1.90;;;;;;;5.64;100.00;98501.06;5026811;28;20034;-42
2023/01/14 08:00:15;;;;;;;8.63;1.95;;;;;;;5.62;100.00;98521.81;5019811;28;20049;-42
2023/01/14 08:02:42;;;;;;;5.43;1.00;;;;;;;5.56;100.00;98515.81;5024313;28;20060;-42
2023/01/14 08:05:09;;;;;;;10.05;1.33;;;;;;;5.56;100.00;98528.78;5023503;28;20038;-41
2023/01/14 08:07:35;;;;;;;8.98;1.38;;;;;;;5.50;100.00;98529.09;5018794;28;20045;-43
2023/01/14 08:10:03;;;;;;;7.70;1.17;;;;;;;5.49;100.00;98530.22;5024080;28;20049;-46
2023/01/14 08:12:32;;;;;;;10.82;0.90;;;;;;;5.47;100.00;98538.03;5021103;28;20120;-41
2023/01/14 08:15:02;;;;;;;7.20;1.35;;;;;;;5.47;100.00;98554.50;5016096;28;20072;-47
2023/01/14 08:17:29;;;;;;;5.40;0.50;;;;;;;5.43;100.00;98548.16;5006720;28;20051;-42
2023/01/14 08:19:55;;;;;;;3.58;0.77;;;;;;;5.41;100.00;98536.75;5016113;28;20059;-41
2023/01/14 08:22:22;;;;;;;6.90;1.25;;;;;;;5.38;100.00;98539.41;5027187;28;20045;-42
2023/01/14 08:24:50;;;;;;;5.68;1.75;;;;;;;5.35;100.00;98534.66;5026838;28;20053;-41
2023/01/14 08:27:17;;;;;;;5.03;1.38;;;;;;;5.33;100.00;98548.75;5030822;28;20119;-42
2023/01/14 08:29:45;;;;;;;7.35;1.45;;;;;;;5.33;100.00;98553.44;5028689;28;20073;-46
2023/01/14 08:32:13;;;;;;;7.97;1.92;;;;;;;5.29;99.96;98558.88;5027177;28;20039;-41
2023/01/14 08:34:40;;;;;;;6.93;1.45;;;;;;;5.28;100.00;98564.72;5027079;28;20088;-42
2023/01/14 08:37:07;;;;;;;6.95;1.00;;;;;;;5.26;100.00;98572.50;5026238;28;20060;-41
2023/01/14 08:39:34;;;;;;;9.65;2.08;;;;;;;5.24;99.59;98574.84;5027179;28;20398;-41
2023/01/14 08:42:02;;;;;;;5.90;1.98;;;;;;;5.22;99.50;98564.22;5026723;28;20044;-41
2023/01/14 08:44:29;;;;;;;6.82;0.98;;;;;;;5.21;99.46;98568.13;5014593;28;20051;-42
2023/01/14 08:46:56;;;;;;;5.82;1.13;;;;;;;5.18;99.39;98568.84;5033263;28;20148;-42
2023/01/14 08:49:22;;;;;;;8.13;0.93;;;;;;;5.17;99.25;98572.72;5009640;28;20037;-42
2023/01/14 08:51:49;;;;;;;4.60;0.70;;;;;;;5.16;99.48;98573.91;5026996;28;20045;-48
2023/01/14 08:54:16;;;;;;;5.43;1.08;;;;;;;5.13;99.04;98582.84;5013659;28;20127;-42
2023/01/14 08:56:43;;;;;;;6.07;2.05;;;;;;;5.12;98.74;98586.75;5022704;28;20051;-45
2023/01/14 08:59:11;;;;;;;7.03;1.05;;;;;;;5.12;98.95;98597.72;5014861;28;20042;-41
2023/01/14 09:01:38;;;;;;;3.33;0.80;;;;;;;5.11;98.61;98600.81;5027850;28;20056;-42
2023/01/14 09:04:20;;;;;;;8.05;1.23;;;;;;;5.08;98.47;98596.84;5026507;28;20495;-43
2023/01/14 09:18:03;;;;;;;6.22;1.23;;;;;;;4.96;97.69;98596.97;5027718;28;20095;-42
2023/01/14 09:20:34;;;;;;;3.05;0.80;;;;;;;4.96;97.83;98598.94;5037241;28;20132;-42
2023/01/14 09:23:03;;;;;;;4.57;0.90;;;;;;;4.95;97.89;98611.84;5026557;28;20122;-42
2023/01/14 09:25:29;;;;;;;7.25;2.28;;;;;;;4.95;97.77;98603.59;5026928;28;20061;-44
2023/01/14 09:27:56;;;;;;;3.33;0.77;;;;;;;4.94;97.79;98618.50;5026370;28;20411;-42
2023/01/14 09:30:23;;;;;;;11.45;1.60;;;;;;;4.93;97.79;98625.13;5026707;28;20081;-42
2023/01/14 09:32:50;;;;;;;4.97;0.88;;;;;;;4.93;97.42;98622.38;5026469;28;20124;-42
2023/01/14 09:35:17;;;;;;;6.57;1.10;;;;;;;4.95;97.53;98616.56;5029994;28;20044;-47
2023/01/14 09:37:44;;;;;;;5.05;1.35;;;;;;;4.94;97.38;98618.50;5028959;28;20380;-45
2023/01/14 09:40:11;;;;;;;5.22;1.25;;;;;;;4.94;97.18;98629.47;5027499;28;20136;-42
2023/01/14 09:42:48;;;;;;;5.40;1.33;;;;;;;4.90;97.01;98623.09;5026579;28;20859;-43
2023/01/14 09:45:29;;;;;;;10.20;1.48;;;;;;;4.88;96.92;98630.88;5026850;28;20053;-46
2023/01/14 09:48:01;;;;;;;3.50;1.40;;;;;;;4.85;96.72;98632.41;4997877;28;20045;-45
2023/01/14 09:50:42;;;;;;;7.47;2.22;;;;;;;4.84;96.32;98636.28;5029042;28;20076;-42
2023/01/14 09:53:42;;;;;;;7.55;1.27;;;;;;;4.82;96.04;98626.81;5040994;28;20495;-43
2023/01/14 09:56:23;;;;;;;7.10;1.30;;;;;;;4.82;96.17;98637.78;5011238;28;20123;-43
2023/01/14 09:58:56;;;;;;;8.05;2.17;;;;;;;4.81;95.78;98625.25;5030382;28;20045;-42
2023/01/14 10:01:36;;;;;;;4.13;1.48;;;;;;;4.79;95.69;98644.03;5029855;28;20049;-43
2023/01/14 10:04:47;;;;;;;5.78;1.17;;;;;;;4.77;95.28;98616.94;5030147;28;20043;-42
2023/01/14 10:07:16;;;;;;;6.32;1.15;;;;;;;4.76;95.42;98618.13;5030003;28;20057;-43
2023/01/14 10:09:51;;;;;;;4.75;1.13;;;;;;;4.76;95.22;98629.09;5035258;28;20052;-47
2023/01/14 10:12:25;;;;;;;6.85;1.83;;;;;;;4.77;94.89;98618.88;5029754;28;20061;-43
2023/01/14 10:15:12;;;;;;;3.10;1.30;;;;;;;4.78;94.91;98620.50;5029819;28;20077;-43
2023/01/14 10:17:42;;;;;;;7.50;1.30;;;;;;;4.80;94.67;98623.66;5016617;28;20412;-42
2023/01/14 10:20:18;;;;;;;4.00;0.68;;;;;;;4.80;94.45;98637.38;5029376;28;20049;-50
2023/01/14 10:22:52;;;;;;;3.75;0.95;;;;;;;4.79;94.65;98633.06;5029692;28;20076;-42
2023/01/14 10:25:21;;;;;;;5.78;0.90;;;;;;;4.81;94.32;98633.47;5029738;28;20399;-42
2023/01/14 10:27:55;;;;;;;12.75;1.10;;;;;;;4.81;94.76;98636.22;5043037;28;20049;-44
2023/01/14 10:30:35;;;;;;;4.95;1.35;;;;;;;4.82;94.54;98640.53;5029506;28;20041;-43
2023/01/14 10:33:05;;;;;;;12.10;1.08;;;;;;;4.82;94.62;98648.75;5029172;28;20037;-43
2023/01/14 10:35:35;;;;;;;8.98;1.17;;;;;;;4.83;94.51;98655.84;5029512;28;20514;-43
2023/01/14 10:38:03;;;;;;;5.30;1.00;;;;;;;4.84;94.27;98669.19;5029546;28;20383;-43
2023/01/14 10:40:33;;;;;;;2.70;0.60;;;;;;;4.86;94.05;98663.34;5029102;28;20077;-42
2023/01/14 10:43:01;;;;;;;3.15;0.90;;;;;;;4.88;93.93;98680.22;5030429;28;20403;-43
2023/01/14 10:45:28;;;;;;;3.25;1.52;;;;;;;4.89;93.89;98670.88;5016879;28;20081;-43
2023/01/14 10:48:02;;;;;;;1.73;0.65;;;;;;;4.92;93.68;98670.94;5029227;28;20041;-51
2023/01/14 10:50:33;;;;;;;9.15;0.90;;;;;;;4.94;93.66;98673.31;5028731;28;20488;-43
2023/01/14 10:53:23;;;;;;;8.82;1.30;;;;;;;4.95;93.27;98685.88;5028964;28;20067;-42
2023/01/14 10:55:57;;;;;;;4.35;0.90;;;;;;;4.95;93.08;98685.09;5028671;28;20479;-40
2023/01/14 10:58:41;;;;;;;3.47;0.63;;;;;;;4.96;92.85;98676.50;5026548;28;20579;-43
2023/01/14 11:01:09;;;;;;;6.13;0.88;;;;;;;4.98;92.63;98679.66;5028973;28;20136;-49
2023/01/14 11:03:48;;;;;;;4.82;1.05;;;;;;;4.99;92.52;98688.69;5028867;28;20041;-43
2023/01/14 11:06:17;;;;;;;7.22;2.67;;;;;;;5.00;92.35;98685.63;5011072;28;20056;-46
2023/01/14 11:08:47;;;;;;;3.33;0.50;;;;;;;5.01;92.15;98675.41;5028678;28;20041;-42
2023/01/14 11:11:25;;;;;;;2.78;0.80;;;;;;;5.03;92.19;98671.16;5028956;28;20064;-42
2023/01/14 11:13:54;;;;;;;3.22;0.80;;;;;;;5.05;91.76;98673.56;5028422;28;20378;-43
2023/01/14 11:16:30;;;;;;;3.03;0.80;;;;;;;5.04;91.66;98670.03;5028873;28;20053;-43
2023/01/14 11:18:57;;;;;;;1.50;0.82;;;;;;;5.08;91.40;98684.63;5036121;28;20042;-46
2023/01/14 11:21:29;;;;;;;1.98;0.40;;;;;;;5.08;91.34;98676.41;5028477;28;20041;-44
2023/01/14 11:23:57;;;;;;;7.38;2.28;;;;;;;5.11;91.07;98672.13;5028485;28;20068;-44
2023/01/14 11:26:26;;;;;;;4.28;0.82;;;;;;;5.12;91.18;98666.28;5027893;28;20051;-44
2023/01/14 11:29:17;;;;;;;3.75;0.80;;;;;;;5.12;90.99;98680.00;5028207;28;20071;-46
2023/01/14 11:31:45;;;;;;;1.58;0.52;;;;;;;5.15;90.74;98662.03;5026736;28;20053;-44
2023/01/14 11:34:29;;;;;;;3.35;0.95;;;;;;;5.16;90.71;98669.91;5032585;28;20131;-49
2023/01/14 11:37:24;;;;;;;4.30;1.98;;;;;;;5.16;90.30;98653.44;5018027;28;20099;-44
2023/01/14 11:39:51;;;;;;;6.38;1.25;;;;;;;5.20;90.48;98668.03;5029641;28;20442;-49
2023/01/14 11:42:43;;;;;;;5.00;0.98;;;;;;;5.20;89.70;98654.31;5029777;28;20053;-46
2023/01/14 11:45:11;;;;;;;5.15;1.20;;;;;;;5.23;89.63;98663.75;5019021;28;20056;-46
2023/01/14 11:47:55;;;;;;;4.30;0.93;;;;;;;5.26;89.89;98674.81;5029747;28;20103;-45
2023/01/14 11:50:27;;;;;;;3.83;0.70;;;;;;;5.27;89.28;98659.94;5029494;28;20506;-48
2023/01/14 11:53:18;;;;;;;6.15;2.85;;;;;;;5.29;89.07;98663.13;5041021;28;20057;-44
2023/01/14 11:55:49;;;;;;;4.22;1.05;;;;;;;5.32;89.11;98656.88;5012267;28;20054;-47
2023/01/14 11:58:25;;;;;;;9.05;2.08;;;;;;;5.35;89.16;98661.66;5029264;28;20103;-48
2023/01/14 12:01:04;;;;;;;3.80;1.55;;;;;;;5.35;88.83;98683.59;5029189;28;20408;-48
2023/01/14 12:03:37;;;;;;;3.88;0.82;;;;;;;5.37;88.51;98669.56;5029409;28;20120;-45
2023/01/14 12:06:11;;;;;;;3.47;1.27;;;;;;;5.39;88.46;98670.78;5016999;28;20037;-44
2023/01/14 12:08:40;;;;;;;4.00;1.15;;;;;;;5.41;88.49;98676.69;5033650;28;20056;-43
2023/01/14 12:11:16;;;;;;;3.60;0.80;;;;;;;5.45;88.38;98696.75;5029565;28;20064;-46
2023/01/14 12:17:10;;;;;;;3.03;0.47;;;;;;;5.56;87.79;98696.97;5029496;28;20041;-44
2023/01/14 12:20:04;;;;;;;6.75;1.75;;;;;;;5.59;87.68;98676.25;4993727;28;20049;-43
2023/01/14 12:22:48;;;;;;;3.55;1.10;;;;;;;5.62;87.59;98681.00;5029404;28;20045;-43
2023/01/14 12:25:30;;;;;;;6.95;1.08;;;;;;;5.63;87.42;98693.59;5020122;28;20056;-43
2023/01/14 12:28:08;;;;;;;5.30;1.20;;;;;;;5.66;87.27;98703.84;5031528;28;20049;-43
2023/01/14 12:30:39;;;;;;;7.85;2.20;;;;;;;5.69;87.40;98700.38;5029392;28;20049;-43